createdAt,value
2018-12-05T00:02:10.707Z,5.70
2018-12-05T00:04:38.747Z,5.63
2018-12-05T00:07:06.490Z,5.29
2018-12-05T00:09:34.534Z,5.40
2018-12-05T00:12:02.685Z,5.56
2018-12-05T00:14:30.836Z,5.61
2018-12-05T00:16:58.920Z,5.45
2018-12-05T00:19:26.969Z,5.55
2018-12-05T00:21:55.145Z,5.78
2018-12-05T00:24:23.210Z,5.76
2018-12-05T00:26:51.295Z,5.71
2018-12-05T00:29:19.397Z,5.88
2018-12-05T00:31:47.498Z,6.21
2018-12-05T00:34:15.546Z,5.82
2018-12-05T00:39:25.159Z,6.04
2018-12-05T00:41:53.231Z,5.71
2018-12-05T00:44:21.372Z,6.14
2018-12-05T00:46:49.466Z,5.96
2018-12-05T00:49:17.555Z,6.08
2018-12-05T00:51:45.664Z,5.99
2018-12-05T00:54:13.771Z,6.06
2018-12-05T00:56:41.807Z,6.02
2018-12-05T00:59:09.857Z,6.09
2018-12-05T01:01:37.958Z,5.87
2018-12-05T01:04:06.267Z,5.98
2018-12-05T01:06:34.421Z,6.25
2018-12-05T01:09:02.525Z,6.27
2018-12-05T01:11:30.558Z,6.53
2018-12-05T01:13:58.596Z,6.25
2018-12-05T01:19:08.166Z,6.81
2018-12-05T01:21:36.266Z,6.97
2018-12-05T01:24:04.373Z,7.03
2018-12-05T01:26:32.415Z,6.85
2018-12-05T01:29:00.462Z,7.25
2018-12-05T01:31:28.634Z,7.35
2018-12-05T01:33:56.681Z,6.55
2018-12-05T01:36:24.730Z,6.83
2018-12-05T01:38:52.786Z,6.69
2018-12-05T01:41:21.070Z,6.82
2018-12-05T01:43:49.114Z,7.00
2018-12-05T01:46:17.150Z,7.31
2018-12-05T01:48:45.245Z,7.09
2018-12-05T01:51:13.397Z,7.20
2018-12-05T01:53:41.506Z,7.39
2018-12-05T01:56:09.617Z,7.51
2018-12-05T01:58:37.664Z,7.02
2018-12-05T02:01:05.775Z,7.05
2018-12-05T02:03:33.890Z,6.97
2018-12-05T02:06:02.018Z,7.38
2018-12-05T02:08:30.070Z,7.43
2018-12-05T02:10:58.252Z,7.38
2018-12-05T02:13:26.299Z,7.25
2018-12-05T02:15:54.403Z,7.19
2018-12-05T02:18:22.441Z,7.23
2018-12-05T02:20:50.491Z,7.11
2018-12-05T02:23:18.615Z,6.98
2018-12-05T02:25:46.654Z,6.50
2018-12-05T02:28:14.753Z,6.20
2018-12-05T02:30:43.167Z,6.75
2018-12-05T02:33:11.195Z,6.71
2018-12-05T02:35:39.300Z,6.13
2018-12-05T02:38:07.415Z,6.57
2018-12-05T02:40:35.447Z,6.55
2018-12-05T02:43:03.633Z,6.64
2018-12-05T02:45:31.843Z,6.31
2018-12-05T02:47:59.955Z,6.00
2018-12-05T02:50:28.067Z,6.46
2018-12-05T02:52:56.117Z,6.52
2018-12-05T02:55:24.150Z,6.43
2018-12-05T02:57:52.262Z,6.41
2018-12-05T03:00:20.308Z,5.73
2018-12-05T03:02:48.513Z,6.05
2018-12-05T03:05:16.605Z,6.18
2018-12-05T03:07:44.766Z,6.40
2018-12-05T03:10:13.020Z,6.54
2018-12-05T03:12:41.114Z,6.65
2018-12-05T03:15:09.150Z,6.36
2018-12-05T03:17:37.190Z,6.33
2018-12-05T03:20:05.538Z,6.44
2018-12-05T03:22:33.572Z,6.52
2018-12-05T03:25:01.706Z,6.57
2018-12-05T03:27:29.831Z,6.50
2018-12-05T03:29:57.925Z,6.42
2018-12-05T03:32:25.973Z,6.18
2018-12-05T03:34:53.997Z,6.16
2018-12-05T03:37:22.054Z,6.00
2018-12-05T03:39:50.162Z,6.22
2018-12-05T03:42:18.216Z,6.27
2018-12-05T03:44:46.268Z,6.57
2018-12-05T03:47:14.376Z,6.43
2018-12-05T03:49:44.366Z,6.31
2018-12-05T03:52:12.431Z,6.33
2018-12-05T03:54:40.550Z,6.43
2018-12-05T03:57:08.741Z,6.34
2018-12-05T03:59:37.121Z,6.31
2018-12-05T04:02:05.242Z,6.29
2018-12-05T04:04:33.276Z,6.46
2018-12-05T04:07:01.315Z,6.37
2018-12-05T04:09:29.339Z,6.22
2018-12-05T04:11:57.370Z,6.20
2018-12-05T04:14:25.396Z,6.13
2018-12-05T04:16:53.477Z,5.99
2018-12-05T04:19:21.497Z,5.81
2018-12-05T04:21:49.535Z,5.85
2018-12-05T04:24:18.577Z,5.27
2018-12-05T04:26:46.709Z,4.87
2018-12-05T04:29:14.747Z,5.46
2018-12-05T04:31:42.779Z,5.59
2018-12-05T04:34:10.821Z,5.56
2018-12-05T04:36:38.834Z,5.54
2018-12-05T04:39:08.735Z,5.48
2018-12-05T04:41:36.791Z,5.33
2018-12-05T04:44:05.053Z,5.60
2018-12-05T04:46:33.250Z,5.66
2018-12-05T04:49:01.363Z,5.51
2018-12-05T04:51:29.397Z,5.29
2018-12-05T04:53:57.437Z,5.75
2018-12-05T04:56:25.471Z,5.10
2018-12-05T04:58:53.529Z,5.43
2018-12-05T05:01:21.836Z,5.51
2018-12-05T05:03:49.938Z,5.47
2018-12-05T05:06:18.031Z,5.54
2018-12-05T05:08:46.057Z,5.65
2018-12-05T05:11:14.085Z,5.47
2018-12-05T05:13:42.476Z,5.80
2018-12-05T05:16:10.522Z,5.68
2018-12-05T05:18:38.557Z,5.57
2018-12-05T05:21:06.658Z,5.73
2018-12-05T05:23:34.703Z,5.78
2018-12-05T05:26:02.844Z,5.61
2018-12-05T05:28:30.950Z,5.59
2018-12-05T05:30:59.015Z,5.57
2018-12-05T05:33:27.052Z,5.47
2018-12-05T05:35:55.169Z,5.39
2018-12-05T05:38:23.194Z,5.58
2018-12-05T05:40:51.284Z,5.65
2018-12-05T05:43:19.373Z,5.85
2018-12-05T05:45:47.425Z,5.49
2018-12-05T05:48:15.447Z,5.82
2018-12-05T05:50:43.573Z,5.88
2018-12-05T05:53:11.616Z,5.80
2018-12-05T05:55:39.675Z,5.65
2018-12-05T05:58:07.792Z,5.90
2018-12-05T06:00:35.834Z,5.81
2018-12-05T06:03:03.961Z,6.05
2018-12-05T06:05:32.044Z,5.83
2018-12-05T06:08:00.116Z,6.07
2018-12-05T06:10:28.136Z,6.15
2018-12-05T06:12:56.231Z,5.81
2018-12-05T06:15:24.327Z,5.99
2018-12-05T06:17:52.374Z,5.94
2018-12-05T06:20:20.404Z,5.98
2018-12-05T06:22:48.477Z,5.84
2018-12-05T06:25:16.524Z,5.70
2018-12-05T06:27:44.574Z,6.68
2018-12-05T06:30:12.680Z,6.95
2018-12-05T06:32:40.719Z,6.75
2018-12-05T06:35:08.823Z,5.71
2018-12-05T06:37:36.853Z,5.76
2018-12-05T06:40:05.235Z,5.84
2018-12-05T06:42:33.273Z,6.02
2018-12-05T06:45:01.373Z,5.75
2018-12-05T06:47:29.426Z,6.14
2018-12-05T06:49:57.470Z,6.00
2018-12-05T06:52:25.626Z,6.18
2018-12-05T06:54:53.853Z,6.24
2018-12-05T06:57:21.922Z,6.24
2018-12-05T06:59:50.047Z,6.14
2018-12-05T07:02:18.164Z,6.27
2018-12-05T07:04:46.430Z,6.06
2018-12-05T07:07:14.461Z,6.87
2018-12-05T07:09:42.508Z,6.48
2018-12-05T07:12:10.587Z,6.44
2018-12-05T07:14:38.645Z,6.15
2018-12-05T07:17:06.706Z,5.55
2018-12-05T07:19:34.747Z,6.20
2018-12-05T07:22:08.770Z,6.06
2018-12-05T07:24:36.883Z,6.80
2018-12-05T07:27:05.026Z,5.75
2018-12-05T07:29:33.271Z,5.69
2018-12-05T07:32:01.442Z,6.55
2018-12-05T07:34:29.516Z,6.91
2018-12-05T07:36:57.657Z,7.34
2018-12-05T07:39:25.909Z,7.40
2018-12-05T07:41:54.461Z,7.67
2018-12-05T07:44:22.505Z,7.99
2018-12-05T07:46:50.662Z,7.73
2018-12-05T07:49:18.862Z,8.29
2018-12-05T07:51:47.467Z,8.36
2018-12-05T07:54:15.609Z,7.65
2018-12-05T07:56:43.804Z,7.56
2018-12-05T07:59:11.862Z,8.25
2018-12-05T08:01:39.951Z,8.54
2018-12-05T08:04:08.108Z,8.35
2018-12-05T08:06:36.217Z,7.39
2018-12-05T08:09:06.883Z,7.96
2018-12-05T08:11:35.005Z,7.68
2018-12-05T08:14:03.135Z,8.55
2018-12-05T08:16:31.210Z,8.01
2018-12-05T08:18:59.335Z,7.88
2018-12-05T08:21:27.404Z,7.32
2018-12-05T08:23:55.477Z,7.54
2018-12-05T08:26:23.571Z,7.89
2018-12-05T08:28:52.223Z,7.08
2018-12-05T08:31:20.326Z,7.54
2018-12-05T08:33:48.408Z,7.93
2018-12-05T08:36:16.506Z,7.92
2018-12-05T08:38:45.196Z,8.31
2018-12-05T08:41:14.554Z,8.57
2018-12-05T08:43:44.624Z,7.96
2018-12-05T08:46:13.619Z,7.69
2018-12-05T08:48:41.870Z,8.25
2018-12-05T08:51:10.048Z,7.65
2018-12-05T08:53:38.121Z,7.92
2018-12-05T08:56:06.273Z,7.46
2018-12-05T08:58:34.455Z,8.24
2018-12-05T09:01:02.530Z,8.78
2018-12-05T09:03:30.838Z,8.98
2018-12-05T09:05:58.991Z,8.88
2018-12-05T09:08:27.053Z,9.41
2018-12-05T09:10:55.144Z,9.99
2018-12-05T09:13:23.232Z,9.95
2018-12-05T09:15:51.380Z,8.88
2018-12-05T09:18:19.490Z,9.38
2018-12-05T09:20:47.644Z,9.56
2018-12-05T09:23:15.712Z,8.66
2018-12-05T09:25:43.807Z,9.08
2018-12-05T09:28:11.917Z,8.67
2018-12-05T09:30:40.106Z,7.61
2018-12-05T09:33:08.184Z,7.24
2018-12-05T09:35:36.541Z,7.58
2018-12-05T09:38:04.710Z,8.15
2018-12-05T09:40:32.859Z,8.07
2018-12-05T09:43:00.995Z,8.17
2018-12-05T09:45:29.239Z,8.62
2018-12-05T09:47:57.911Z,8.40
2018-12-05T09:50:26.083Z,8.66
2018-12-05T09:52:54.499Z,8.10
2018-12-05T09:55:22.715Z,7.79
2018-12-05T09:57:50.895Z,9.03
2018-12-05T10:00:19.082Z,8.40
2018-12-05T10:02:47.197Z,8.39
2018-12-05T10:05:15.336Z,8.52
2018-12-05T10:07:43.539Z,9.03
2018-12-05T10:10:11.689Z,8.08
2018-12-05T10:12:39.970Z,9.15
2018-12-05T10:15:08.323Z,8.21
2018-12-05T10:17:36.467Z,9.23
2018-12-05T10:20:04.715Z,9.07
2018-12-05T10:22:32.871Z,8.95
2018-12-05T10:25:00.928Z,9.46
2018-12-05T10:27:28.993Z,8.05
2018-12-05T10:29:57.064Z,8.31
2018-12-05T10:32:25.200Z,8.20
2018-12-05T10:34:53.243Z,8.22
2018-12-05T10:37:21.368Z,8.55
2018-12-05T10:39:49.524Z,9.01
2018-12-05T10:42:17.540Z,8.66
2018-12-05T10:44:45.591Z,8.10
2018-12-05T10:47:14.309Z,8.83
2018-12-05T10:49:42.434Z,8.65
2018-12-05T10:52:10.603Z,8.69
2018-12-05T10:54:38.768Z,8.36
2018-12-05T10:57:06.889Z,8.51
2018-12-05T10:59:34.967Z,8.18
2018-12-05T11:02:08.362Z,8.80
2018-12-05T11:04:41.868Z,8.70
2018-12-05T11:07:11.871Z,8.59
2018-12-05T11:09:45.453Z,9.01
2018-12-05T11:12:19.083Z,9.17
2018-12-05T11:14:52.802Z,7.78
2018-12-05T11:17:26.301Z,8.16
2018-12-05T11:20:02.939Z,8.47
2018-12-05T11:22:36.261Z,8.95
2018-12-05T11:25:09.561Z,9.14
2018-12-05T11:27:37.599Z,8.83
2018-12-05T11:30:06.569Z,9.21
2018-12-05T11:32:34.617Z,9.89
2018-12-05T11:35:02.789Z,7.89
2018-12-05T11:37:31.012Z,8.45
2018-12-05T11:39:59.300Z,8.78
2018-12-05T11:42:27.442Z,8.93
2018-12-05T11:44:55.484Z,8.97
2018-12-05T11:47:23.622Z,8.57
2018-12-05T11:49:51.683Z,9.73
2018-12-05T11:52:19.759Z,8.84
2018-12-05T11:54:48.000Z,8.60
2018-12-05T11:57:16.703Z,8.91
2018-12-05T11:59:45.066Z,8.62
2018-12-05T12:02:13.613Z,8.72
2018-12-05T12:04:41.685Z,9.04
2018-12-05T12:07:09.902Z,8.94
2018-12-05T12:09:38.055Z,8.85
2018-12-05T12:12:09.741Z,9.02
2018-12-05T12:14:38.220Z,7.93
2018-12-05T12:17:06.614Z,7.82
2018-12-05T12:19:35.281Z,8.07
2018-12-05T12:22:04.171Z,8.13
2018-12-05T12:24:35.038Z,7.93
2018-12-05T12:27:02.805Z,8.69
2018-12-05T12:29:31.200Z,8.80
2018-12-05T12:34:39.880Z,8.97
2018-12-05T12:37:08.731Z,8.66
2018-12-05T12:39:36.910Z,8.03
2018-12-05T12:42:05.479Z,8.54
2018-12-05T12:44:33.647Z,8.56
2018-12-05T12:47:01.690Z,8.40
2018-12-05T12:49:29.845Z,8.02
2018-12-05T12:51:57.879Z,7.82
2018-12-05T12:54:25.932Z,8.36
2018-12-05T12:56:53.960Z,8.13
2018-12-05T12:59:22.092Z,7.50
2018-12-05T13:01:50.121Z,7.67
2018-12-05T13:04:19.195Z,6.96
2018-12-05T13:06:47.993Z,7.16
2018-12-05T13:09:16.816Z,7.30
2018-12-05T13:11:44.874Z,7.12
2018-12-05T13:14:13.024Z,7.45
2018-12-05T13:16:41.751Z,6.86
2018-12-05T13:19:09.892Z,7.76
2018-12-05T13:21:37.913Z,7.84
2018-12-05T13:24:06.245Z,7.65
2018-12-05T13:26:34.297Z,7.13
2018-12-05T13:29:02.413Z,8.41
2018-12-05T13:31:30.445Z,8.04
2018-12-05T13:33:58.566Z,7.98
2018-12-05T13:36:26.966Z,7.37
2018-12-05T13:38:55.023Z,7.42
2018-12-05T13:41:23.126Z,8.16
2018-12-05T13:43:51.170Z,8.19
2018-12-05T13:46:19.281Z,7.71
2018-12-05T13:48:47.369Z,7.38
2018-12-05T13:51:15.520Z,7.12
2018-12-05T13:53:43.903Z,7.41
2018-12-05T13:56:11.999Z,7.51
2018-12-05T13:58:40.095Z,6.98
2018-12-05T14:01:08.132Z,7.35
2018-12-05T14:03:36.269Z,7.36
2018-12-05T14:06:04.422Z,7.35
2018-12-05T14:08:32.467Z,6.88
2018-12-05T14:11:00.498Z,7.54
2018-12-05T14:13:28.556Z,7.69
2018-12-05T14:15:56.604Z,7.55
2018-12-05T14:18:24.651Z,7.62
2018-12-05T14:20:52.770Z,7.67
2018-12-05T14:23:20.846Z,8.47
2018-12-05T14:25:48.897Z,8.08
2018-12-05T14:28:17.191Z,7.19
2018-12-05T14:30:46.529Z,7.86
2018-12-05T14:33:14.673Z,8.12
2018-12-05T14:35:42.867Z,7.99
2018-12-05T14:38:10.915Z,8.07
2018-12-05T14:40:39.038Z,7.76
2018-12-05T14:43:07.086Z,7.82
2018-12-05T14:45:35.117Z,7.48
2018-12-05T14:48:03.230Z,7.63
2018-12-05T14:50:31.453Z,7.73
2018-12-05T14:52:59.482Z,7.70
2018-12-05T14:55:27.607Z,8.17
2018-12-05T14:57:55.683Z,7.65
2018-12-05T15:00:23.736Z,7.63
2018-12-05T15:02:51.772Z,7.81
2018-12-05T15:05:19.893Z,8.28
2018-12-05T15:07:48.007Z,8.31
2018-12-05T15:10:16.041Z,7.78
2018-12-05T15:12:48.257Z,7.93
2018-12-05T15:15:16.399Z,7.77
2018-12-05T15:17:44.442Z,7.88
2018-12-05T15:20:12.475Z,7.77
2018-12-05T15:22:40.535Z,8.14
2018-12-05T15:25:08.620Z,8.02
2018-12-05T15:27:36.759Z,8.11
2018-12-05T15:30:05.839Z,7.68
2018-12-05T15:32:33.913Z,7.42
2018-12-05T15:35:02.019Z,8.21
2018-12-05T15:37:30.151Z,8.07
2018-12-05T15:39:58.183Z,8.22
2018-12-05T15:42:26.260Z,7.72
2018-12-05T15:44:54.370Z,8.71
2018-12-05T15:47:22.413Z,8.19
2018-12-05T15:49:51.465Z,8.52
2018-12-05T15:52:19.587Z,8.53
2018-12-05T15:54:47.645Z,8.09
2018-12-05T15:57:15.755Z,8.12
2018-12-05T15:59:43.858Z,8.39
2018-12-05T16:02:11.986Z,9.14
2018-12-05T16:04:40.039Z,8.04
2018-12-05T16:07:08.130Z,7.78
2018-12-05T16:09:36.239Z,7.99
2018-12-05T16:12:04.356Z,8.11
2018-12-05T16:14:32.407Z,7.99
2018-12-05T16:17:00.430Z,8.18
2018-12-05T16:19:29.366Z,7.67
2018-12-05T16:21:57.482Z,8.07
2018-12-05T16:24:25.561Z,7.75
2018-12-05T16:26:53.673Z,8.21
2018-12-05T16:29:21.774Z,7.70
2018-12-05T16:31:49.814Z,7.32
2018-12-05T16:34:17.896Z,7.94
2018-12-05T16:36:45.923Z,8.28
2018-12-05T16:39:13.988Z,8.63
2018-12-05T16:41:42.101Z,7.99
2018-12-05T16:44:12.993Z,8.42
2018-12-05T16:46:40.153Z,8.65
2018-12-05T16:49:08.240Z,8.87
2018-12-05T16:51:36.435Z,8.81
2018-12-05T16:54:05.532Z,8.88
2018-12-05T16:56:33.769Z,8.39
2018-12-05T16:59:02.477Z,8.70
2018-12-05T17:01:30.623Z,9.44
2018-12-05T17:03:58.748Z,8.95
2018-12-05T17:06:26.846Z,9.05
2018-12-05T17:08:54.889Z,8.76
2018-12-05T17:11:22.982Z,8.26
2018-12-05T17:13:51.093Z,7.69
2018-12-05T17:16:19.155Z,8.18
2018-12-05T17:18:47.226Z,8.25
2018-12-05T17:21:15.425Z,7.54
2018-12-05T17:23:43.495Z,7.22
2018-12-05T17:26:11.621Z,7.58
2018-12-05T17:28:39.679Z,7.62
2018-12-05T17:31:08.893Z,8.18
2018-12-05T17:33:37.949Z,7.36
2018-12-05T17:36:06.019Z,8.42
2018-12-05T17:38:34.154Z,8.98
2018-12-05T17:41:02.742Z,9.21
2018-12-05T17:43:30.800Z,8.76
2018-12-05T17:45:58.904Z,9.12
2018-12-05T17:48:27.008Z,9.00
2018-12-05T17:50:55.133Z,8.39
2018-12-05T17:53:23.252Z,8.38
2018-12-05T17:55:51.355Z,8.30
2018-12-05T17:58:20.403Z,8.47
2018-12-05T18:00:48.443Z,8.64
2018-12-05T18:03:16.465Z,8.88
2018-12-05T18:05:44.546Z,8.21
2018-12-05T18:08:12.618Z,7.90
2018-12-05T18:10:40.701Z,8.17
2018-12-05T18:13:08.743Z,8.18
2018-12-05T18:15:36.852Z,8.48
2018-12-05T18:18:04.970Z,8.06
2018-12-05T18:20:33.031Z,8.85
2018-12-05T18:23:01.166Z,8.64
2018-12-05T18:25:29.283Z,8.49
2018-12-05T18:27:57.509Z,8.68
2018-12-05T18:30:25.613Z,8.41
2018-12-05T18:32:53.659Z,8.54
2018-12-05T18:35:21.777Z,8.69
2018-12-05T18:37:49.871Z,8.48
2018-12-05T18:40:17.954Z,8.65
2018-12-05T18:42:46.017Z,7.86
2018-12-05T18:45:14.124Z,9.44
2018-12-05T18:47:42.201Z,8.82
2018-12-05T18:50:10.305Z,9.14
2018-12-05T18:52:38.349Z,8.29
2018-12-05T18:55:06.518Z,9.00
2018-12-05T18:57:34.537Z,9.12
2018-12-05T19:00:02.667Z,9.14
2018-12-05T19:02:30.780Z,8.82
2018-12-05T19:04:58.872Z,8.93
2018-12-05T19:07:26.925Z,9.48
2018-12-05T19:09:55.033Z,9.17
2018-12-05T19:12:23.083Z,9.26
2018-12-05T19:14:51.127Z,9.45
2018-12-05T19:17:19.237Z,10.34
2018-12-05T19:19:47.297Z,10.19
2018-12-05T19:22:16.328Z,10.41
2018-12-05T19:24:44.486Z,9.10
2018-12-05T19:27:12.554Z,9.18
2018-12-05T19:29:40.611Z,8.87
2018-12-05T19:32:08.939Z,9.61
2018-12-05T19:34:37.030Z,8.73
2018-12-05T19:37:05.348Z,8.82
2018-12-05T19:39:33.395Z,9.33
2018-12-05T19:42:01.473Z,8.77
2018-12-05T19:44:29.668Z,8.91
2018-12-05T19:46:57.770Z,9.21
2018-12-05T19:49:25.809Z,8.89
2018-12-05T19:51:54.045Z,9.06
2018-12-05T19:54:22.843Z,9.27
2018-12-05T19:56:50.867Z,9.37
2018-12-05T19:59:18.914Z,8.53
2018-12-05T20:01:47.062Z,8.29
2018-12-05T20:04:15.152Z,8.35
2018-12-05T20:06:43.197Z,8.40
2018-12-05T20:09:11.268Z,8.31
2018-12-05T20:11:39.311Z,8.51
2018-12-05T20:14:07.446Z,8.54
2018-12-05T20:16:35.585Z,9.07
2018-12-05T20:19:03.712Z,9.21
2018-12-05T20:21:31.778Z,9.03
2018-12-05T20:23:59.865Z,9.43
2018-12-05T20:26:28.060Z,8.93
2018-12-05T20:28:56.278Z,8.66
2018-12-05T20:31:24.318Z,7.82
2018-12-05T20:33:52.967Z,8.15
2018-12-05T20:36:21.021Z,7.59
2018-12-05T20:38:49.661Z,8.05
2018-12-05T20:41:17.771Z,7.94
2018-12-05T20:43:47.620Z,8.39
2018-12-05T20:46:15.730Z,8.35
2018-12-05T20:48:43.776Z,7.98
2018-12-05T20:51:11.878Z,7.59
2018-12-05T20:53:40.011Z,8.68
2018-12-05T20:56:08.123Z,8.54
2018-12-05T20:58:36.274Z,7.80
2018-12-05T21:01:04.377Z,7.91
2018-12-05T21:03:32.479Z,8.01
2018-12-05T21:06:00.602Z,8.27
2018-12-05T21:08:28.674Z,8.24
2018-12-05T21:10:56.721Z,7.74
2018-12-05T21:13:25.316Z,8.11
2018-12-05T21:15:53.382Z,8.38
2018-12-05T21:18:21.416Z,9.07
2018-12-05T21:20:49.633Z,8.85
2018-12-05T21:23:17.675Z,8.09
2018-12-05T21:25:45.828Z,8.30
2018-12-05T21:28:20.370Z,7.92
2018-12-05T21:30:48.389Z,8.29
2018-12-05T21:33:16.770Z,7.90
2018-12-05T21:35:44.890Z,8.21
2018-12-05T21:38:12.920Z,7.99
2018-12-05T21:40:40.957Z,8.20
2018-12-05T21:43:08.986Z,7.77
2018-12-05T21:45:37.106Z,7.73
2018-12-05T21:48:05.245Z,7.81
2018-12-05T21:50:33.342Z,8.04
2018-12-05T21:53:01.608Z,8.05
2018-12-05T21:55:29.646Z,8.45
2018-12-05T21:57:58.092Z,8.57
2018-12-05T22:00:26.138Z,7.96
2018-12-05T22:02:54.198Z,8.38
2018-12-05T22:05:22.402Z,8.45
2018-12-05T22:07:50.721Z,8.31
2018-12-05T22:10:18.773Z,8.62
2018-12-05T22:12:46.853Z,9.12
2018-12-05T22:15:15.009Z,9.69
2018-12-05T22:17:43.075Z,9.39
2018-12-05T22:20:11.234Z,9.89
2018-12-05T22:22:39.365Z,9.77
2018-12-05T22:25:07.869Z,8.77
2018-12-05T22:27:35.988Z,8.63
2018-12-05T22:30:04.975Z,8.62
2018-12-05T22:32:33.313Z,8.48
2018-12-05T22:35:01.665Z,8.50
2018-12-05T22:37:29.703Z,8.78
2018-12-05T22:39:57.769Z,8.83
2018-12-05T22:42:25.837Z,8.79
2018-12-05T22:44:53.891Z,8.76
2018-12-05T22:47:22.526Z,8.28
2018-12-05T22:49:50.697Z,8.58
2018-12-05T22:52:18.774Z,8.47
2018-12-05T22:54:46.841Z,8.34
2018-12-05T22:57:15.632Z,8.54
2018-12-05T22:59:43.681Z,8.83
2018-12-05T23:02:11.878Z,8.49
2018-12-05T23:04:40.050Z,8.66
2018-12-05T23:07:08.183Z,8.97
2018-12-05T23:09:37.685Z,8.28
2018-12-05T23:12:05.876Z,8.99
2018-12-05T23:14:33.988Z,8.40
2018-12-05T23:17:02.105Z,8.74
2018-12-05T23:19:30.567Z,8.50
2018-12-05T23:21:58.659Z,9.32
2018-12-05T23:24:26.774Z,8.72
2018-12-05T23:26:54.976Z,8.30
2018-12-05T23:29:23.418Z,8.09
2018-12-05T23:31:51.474Z,8.39
2018-12-05T23:34:19.577Z,8.14
2018-12-05T23:36:47.762Z,8.22
2018-12-05T23:39:15.817Z,9.38
2018-12-05T23:41:44.143Z,9.36
2018-12-05T23:44:12.257Z,9.38
2018-12-05T23:46:40.388Z,9.30
2018-12-05T23:49:08.634Z,8.96
2018-12-05T23:51:43.129Z,9.04
2018-12-05T23:54:11.286Z,8.53
2018-12-05T23:56:39.364Z,8.73
2018-12-05T23:59:07.477Z,8.21
